createdAt,value
2022-12-23T00:01:27.787Z,43.58
2022-12-23T00:03:59.423Z,44.75
2022-12-23T00:06:27.102Z,60.37
2022-12-23T00:08:59.076Z,63.30
2022-12-23T00:11:29.449Z,65.30
2022-12-23T00:14:21.652Z,56.08
2022-12-23T00:16:52.336Z,47.58
2022-12-23T00:19:20.306Z,39.22
2022-12-23T00:21:48.760Z,62.35
2022-12-23T00:24:21.206Z,57.58
2022-12-23T00:26:50.784Z,59.90
2022-12-23T00:29:23.323Z,64.63
2022-12-23T00:34:21.199Z,63.00
2022-12-23T00:36:48.076Z,67.32
2022-12-23T00:39:33.560Z,65.20
2022-12-23T00:42:18.926Z,67.63
2022-12-23T00:44:48.703Z,71.85
2022-12-23T00:47:35.487Z,65.88
2022-12-23T00:50:02.364Z,68.88
2022-12-23T00:52:29.171Z,66.72
2022-12-23T00:55:01.351Z,64.82
2022-12-23T00:57:29.822Z,64.20
2022-12-23T00:59:56.921Z,63.45
2022-12-23T01:02:45.660Z,66.47
2022-12-23T01:05:41.434Z,59.45
2022-12-23T01:08:10.838Z,65.43
2022-12-23T01:10:39.323Z,67.20
2022-12-23T01:13:09.589Z,61.72
2022-12-23T01:15:39.184Z,59.47
2022-12-23T01:18:06.169Z,65.82
2022-12-23T01:20:32.997Z,65.43
2022-12-23T01:22:59.861Z,45.53
2022-12-23T01:25:26.582Z,65.15
2022-12-23T01:27:53.318Z,62.65
2022-12-23T01:30:23.190Z,40.72
2022-12-23T01:32:50.049Z,42.53
2022-12-23T01:35:16.952Z,36.40
2022-12-23T01:37:44.468Z,39.78
2022-12-23T01:40:11.571Z,51.38
2022-12-23T01:42:45.376Z,51.55
2022-12-23T01:45:28.232Z,56.72
2022-12-23T01:50:43.869Z,44.03
2022-12-23T01:53:30.452Z,51.75
2022-12-23T01:56:26.983Z,53.10
2022-12-23T01:59:01.192Z,56.20
2022-12-23T02:01:48.634Z,65.97
2022-12-23T02:04:22.004Z,37.60
2022-12-23T02:07:12.380Z,51.42
2022-12-23T02:09:41.078Z,52.42
2022-12-23T02:12:32.236Z,50.97
2022-12-23T02:15:42.653Z,56.47
2022-12-23T02:18:24.524Z,56.35
2022-12-23T02:21:16.430Z,58.87
2022-12-23T02:24:26.671Z,58.53
2022-12-23T02:27:03.152Z,56.50
2022-12-23T02:29:42.148Z,39.08
2022-12-23T02:32:36.386Z,49.38
2022-12-23T02:35:27.818Z,56.50
2022-12-23T02:38:03.061Z,56.10
2022-12-23T02:41:08.050Z,56.35
2022-12-23T02:43:53.940Z,59.30
2022-12-23T02:46:39.237Z,38.10
2022-12-23T02:49:35.142Z,52.60
2022-12-23T02:52:16.067Z,36.58
2022-12-23T02:54:49.661Z,33.65
2022-12-23T02:57:31.620Z,29.65
2022-12-23T03:00:00.507Z,50.13
2022-12-23T03:02:30.597Z,49.15
2022-12-23T03:04:57.471Z,52.67
2022-12-23T03:07:31.503Z,38.92
2022-12-23T03:10:16.579Z,56.97
2022-12-23T03:13:08.928Z,53.47
2022-12-23T03:15:35.710Z,53.05
2022-12-23T03:18:21.792Z,57.88
2022-12-23T03:21:09.288Z,52.60
2022-12-23T03:23:43.250Z,55.08
2022-12-23T03:26:17.101Z,56.88
2022-12-23T03:29:10.469Z,55.97
2022-12-23T03:31:42.119Z,58.22
2022-12-23T03:34:12.728Z,61.17
2022-12-23T03:36:48.360Z,52.92
2022-12-23T03:39:22.973Z,60.05
2022-12-23T03:42:13.551Z,58.22
2022-12-23T03:45:10.778Z,55.75
2022-12-23T03:47:48.175Z,60.08
2022-12-23T03:50:23.053Z,60.47
2022-12-23T03:53:02.231Z,59.33
2022-12-23T03:55:41.591Z,61.97
2022-12-23T03:58:33.849Z,61.92
2022-12-23T04:01:11.577Z,59.58
2022-12-23T04:04:15.880Z,43.88
2022-12-23T04:07:31.347Z,60.58
2022-12-23T04:09:59.173Z,56.38
2022-12-23T04:12:27.663Z,33.10
2022-12-23T04:14:54.522Z,35.20
2022-12-23T04:17:23.149Z,51.13
2022-12-23T04:19:51.046Z,52.92
2022-12-23T04:22:20.817Z,58.20
2022-12-23T04:24:47.726Z,35.97
2022-12-23T04:27:21.432Z,33.90
2022-12-23T04:29:48.314Z,54.83
2022-12-23T04:32:18.172Z,54.13
2022-12-23T04:34:48.487Z,35.08
2022-12-23T04:37:16.551Z,47.88
2022-12-23T04:39:45.862Z,56.30
2022-12-23T04:42:16.092Z,38.05
2022-12-23T04:44:57.649Z,32.00
2022-12-23T04:47:42.367Z,48.78
2022-12-23T04:50:14.105Z,55.25
2022-12-23T04:52:43.229Z,34.45
2022-12-23T04:55:14.134Z,32.35
2022-12-23T04:57:44.860Z,54.22
2022-12-23T05:00:12.353Z,57.90
2022-12-23T05:02:39.340Z,64.30
2022-12-23T05:05:06.688Z,76.35
2022-12-23T05:07:38.163Z,68.70
2022-12-23T05:10:05.232Z,70.93
2022-12-23T05:12:34.826Z,72.82
2022-12-23T05:15:04.347Z,81.68
2022-12-23T05:17:33.643Z,83.00
2022-12-23T05:20:04.695Z,80.15
2022-12-23T05:22:34.616Z,37.70
2022-12-23T05:25:07.522Z,58.15
2022-12-23T05:27:43.118Z,43.53
2022-12-23T05:30:12.806Z,68.05
2022-12-23T05:32:43.556Z,61.78
2022-12-23T05:35:14.559Z,41.08
2022-12-23T05:37:45.638Z,39.78
2022-12-23T05:40:18.473Z,54.65
2022-12-23T05:42:48.594Z,40.80
2022-12-23T05:45:26.648Z,41.75
2022-12-23T05:48:00.940Z,55.65
2022-12-23T05:50:32.078Z,51.40
2022-12-23T05:52:58.967Z,49.55
2022-12-23T05:55:29.269Z,49.53
2022-12-23T05:58:02.179Z,36.13
2022-12-23T06:00:33.219Z,39.55
2022-12-23T06:03:06.076Z,34.50
2022-12-23T06:05:33.353Z,38.92
2022-12-23T06:08:05.848Z,48.33
2022-12-23T06:13:08.654Z,37.03
2022-12-23T06:15:35.440Z,50.70
2022-12-23T06:18:08.041Z,36.80
2022-12-23T06:20:35.210Z,32.90
2022-12-23T06:23:03.071Z,48.03
2022-12-23T06:25:32.566Z,45.20
2022-12-23T06:28:11.704Z,47.58
2022-12-23T06:30:39.187Z,51.20
2022-12-23T06:33:10.881Z,51.75
2022-12-23T06:35:45.315Z,48.17
2022-12-23T06:38:15.396Z,50.22
2022-12-23T06:40:47.732Z,51.42
2022-12-23T06:43:19.933Z,53.28
2022-12-23T06:45:52.925Z,47.03
2022-12-23T06:48:23.398Z,49.28
2022-12-23T06:50:50.553Z,39.92
2022-12-23T06:53:17.332Z,55.13
2022-12-23T06:55:47.048Z,55.80
2022-12-23T06:58:16.196Z,33.97
2022-12-23T07:00:47.070Z,37.75
2022-12-23T07:03:14.949Z,37.67
2022-12-23T07:05:51.510Z,35.58
2022-12-23T07:08:21.388Z,34.33
2022-12-23T07:10:51.523Z,32.55
2022-12-23T07:13:21.479Z,37.38
2022-12-23T07:15:48.266Z,63.47
2022-12-23T07:18:24.089Z,34.85
2022-12-23T07:20:54.689Z,42.47
2022-12-23T07:23:23.546Z,36.83
2022-12-23T07:25:51.041Z,37.85
2022-12-23T07:28:17.810Z,36.13
2022-12-23T07:30:49.560Z,41.08
2022-12-23T07:33:16.825Z,51.70
2022-12-23T07:35:52.649Z,51.78
2022-12-23T07:38:23.909Z,39.92
2022-12-23T07:40:53.882Z,42.75
2022-12-23T07:43:20.745Z,42.25
2022-12-23T07:46:00.047Z,36.17
2022-12-23T07:48:30.765Z,39.47
2022-12-23T07:51:08.051Z,54.05
2022-12-23T07:53:38.235Z,55.10
2022-12-23T07:56:13.744Z,41.60
2022-12-23T07:58:43.065Z,47.00
2022-12-23T08:01:11.528Z,50.15
2022-12-23T08:03:46.164Z,46.33
2022-12-23T08:06:20.337Z,50.50
2022-12-23T08:08:47.344Z,41.58
2022-12-23T08:11:15.595Z,38.30
2022-12-23T08:13:44.384Z,47.45
2022-12-23T08:16:12.429Z,39.00
2022-12-23T08:18:41.184Z,42.00
2022-12-23T08:21:17.573Z,36.30
2022-12-23T08:23:44.841Z,36.30
2022-12-23T08:26:21.092Z,35.55
2022-12-23T08:28:53.925Z,34.28
2022-12-23T08:31:33.035Z,35.38
2022-12-23T08:34:01.876Z,33.38
2022-12-23T08:36:33.992Z,34.65
2022-12-23T08:39:05.291Z,31.77
2022-12-23T08:41:35.865Z,32.72
2022-12-23T08:44:02.946Z,31.52
2022-12-23T08:46:29.913Z,38.65
2022-12-23T08:48:57.377Z,32.25
2022-12-23T08:51:25.568Z,38.13
2022-12-23T08:54:00.486Z,51.45
2022-12-23T08:56:32.052Z,32.47
2022-12-23T08:58:59.664Z,32.35
2022-12-23T09:01:31.745Z,38.63
2022-12-23T09:04:01.615Z,35.35
2022-12-23T09:06:32.066Z,32.60
2022-12-23T09:08:59.462Z,31.90
2022-12-23T09:11:29.468Z,40.50
2022-12-23T09:13:58.192Z,33.30
2022-12-23T09:16:25.173Z,30.17
2022-12-23T09:18:55.110Z,32.75
2022-12-23T09:21:23.684Z,31.70
2022-12-23T09:23:53.628Z,32.72
2022-12-23T09:26:27.247Z,30.55
2022-12-23T09:28:57.478Z,30.25
2022-12-23T09:31:34.128Z,44.15
2022-12-23T09:34:03.832Z,33.63
2022-12-23T09:36:30.779Z,37.55
2022-12-23T09:39:00.918Z,31.15
2022-12-23T09:41:42.477Z,31.40
2022-12-23T09:44:28.082Z,32.72
2022-12-23T09:46:58.853Z,33.22
2022-12-23T09:49:25.662Z,41.03
2022-12-23T09:51:57.695Z,31.00
2022-12-23T09:54:40.109Z,44.50
2022-12-23T09:57:22.889Z,33.30
2022-12-23T10:03:11.411Z,32.97
2022-12-23T10:05:44.673Z,48.60
2022-12-23T10:08:24.856Z,45.10
2022-12-23T10:10:56.984Z,33.72
2022-12-23T10:13:31.344Z,33.75
2022-12-23T10:16:04.495Z,42.90
2022-12-23T10:18:56.201Z,41.15
2022-12-23T10:21:31.965Z,35.60
2022-12-23T10:24:03.658Z,32.33
2022-12-23T10:26:48.974Z,36.28
2022-12-23T10:29:21.369Z,44.97
2022-12-23T10:31:56.946Z,31.95
2022-12-23T10:34:38.752Z,37.03
2022-12-23T10:37:20.408Z,45.08
2022-12-23T10:40:13.149Z,56.25
2022-12-23T10:42:54.417Z,43.70
2022-12-23T10:45:42.986Z,54.67
2022-12-23T10:48:30.657Z,38.70
2022-12-23T10:51:08.728Z,53.60
2022-12-23T10:53:49.879Z,56.33
2022-12-23T10:56:17.656Z,57.45
2022-12-23T10:58:49.976Z,54.83
2022-12-23T11:01:26.189Z,53.10
2022-12-23T11:04:16.601Z,58.35
2022-12-23T11:06:50.584Z,59.95
2022-12-23T11:09:25.748Z,42.70
2022-12-23T11:12:02.067Z,44.30
2022-12-23T11:14:53.189Z,41.35
2022-12-23T11:17:35.311Z,52.20
2022-12-23T11:20:17.809Z,38.17
2022-12-23T11:22:56.864Z,37.42
2022-12-23T11:25:35.807Z,36.17
2022-12-23T11:28:17.312Z,54.25
2022-12-23T11:30:57.233Z,57.55
2022-12-23T11:33:33.775Z,47.00
2022-12-23T11:36:08.263Z,44.92
2022-12-23T11:38:38.079Z,53.75
2022-12-23T11:41:05.784Z,50.05
2022-12-23T11:43:34.177Z,45.00
2022-12-23T11:46:24.747Z,39.60
2022-12-23T11:49:19.856Z,39.15
2022-12-23T11:51:59.081Z,37.83
2022-12-23T11:54:25.914Z,39.35
2022-12-23T11:56:53.629Z,50.72
2022-12-23T11:59:28.752Z,50.05
2022-12-23T12:01:58.604Z,56.88
2022-12-23T12:04:29.080Z,36.45
2022-12-23T12:06:56.910Z,45.72
2022-12-23T12:09:25.035Z,47.88
2022-12-23T12:12:03.964Z,45.10
2022-12-23T12:14:46.015Z,35.25
2022-12-23T12:17:33.460Z,37.63
2022-12-23T12:20:32.087Z,40.00
2022-12-23T12:23:40.523Z,40.75
2022-12-23T12:26:43.604Z,39.17
2022-12-23T12:29:18.969Z,46.28
2022-12-23T12:31:49.300Z,47.45
2022-12-23T12:34:51.644Z,48.28
2022-12-23T12:37:30.016Z,52.22
2022-12-23T12:40:26.173Z,37.88
2022-12-23T12:43:24.633Z,38.63
2022-12-23T12:46:36.453Z,45.90
2022-12-23T12:49:15.091Z,43.22
2022-12-23T12:52:09.158Z,50.55
2022-12-23T12:55:00.748Z,42.08
2022-12-23T12:57:30.267Z,42.55
2022-12-23T13:00:10.421Z,43.10
2022-12-23T13:03:35.147Z,36.95
2022-12-23T13:06:38.365Z,36.00
2022-12-23T13:09:33.748Z,31.38
2022-12-23T13:12:24.820Z,35.17
2022-12-23T13:15:08.361Z,32.05
2022-12-23T13:17:52.651Z,43.75
2022-12-23T13:20:22.529Z,34.88
2022-12-23T13:23:42.725Z,39.53
2022-12-23T13:26:31.851Z,37.92
2022-12-23T13:29:20.921Z,51.10
2022-12-23T13:32:08.749Z,34.85
2022-12-23T13:35:23.275Z,35.33
2022-12-23T13:38:08.529Z,32.63
2022-12-23T13:41:12.443Z,42.08
2022-12-23T13:43:54.787Z,50.10
2022-12-23T13:46:38.343Z,38.33
2022-12-23T13:49:42.871Z,36.22
2022-12-23T13:52:21.614Z,37.83
2022-12-23T13:54:54.220Z,34.85
2022-12-23T13:58:00.850Z,39.47
2022-12-23T14:00:33.640Z,33.22
2022-12-23T14:03:01.133Z,38.30
2022-12-23T14:05:51.121Z,48.78
2022-12-23T14:08:28.095Z,45.90
2022-12-23T14:11:13.533Z,38.55
2022-12-23T14:14:02.943Z,38.72
2022-12-23T14:16:50.291Z,36.42
2022-12-23T14:19:50.119Z,34.42
2022-12-23T14:22:33.193Z,40.90
2022-12-23T14:25:26.639Z,54.78
2022-12-23T14:28:11.612Z,53.35
2022-12-23T14:30:48.798Z,47.15
2022-12-23T14:33:25.814Z,46.17
2022-12-23T14:35:56.063Z,49.45
2022-12-23T14:38:26.198Z,43.17
2022-12-23T14:40:55.477Z,47.17
2022-12-23T14:43:22.431Z,52.90
2022-12-23T14:45:51.368Z,46.00
2022-12-23T14:48:37.171Z,47.92
2022-12-23T14:51:22.071Z,48.03
2022-12-23T14:53:54.879Z,37.13
2022-12-23T14:56:29.552Z,46.10
2022-12-23T14:59:25.828Z,42.97
2022-12-23T15:02:12.848Z,33.72
2022-12-23T15:04:50.485Z,45.97
2022-12-23T15:07:44.237Z,41.17
2022-12-23T15:10:20.793Z,34.25
2022-12-23T15:13:03.723Z,30.52
2022-12-23T15:15:31.965Z,32.35
2022-12-23T15:18:21.913Z,35.58
2022-12-23T15:21:04.613Z,41.42
2022-12-23T15:23:31.464Z,39.28
2022-12-23T15:26:02.921Z,45.47
2022-12-23T15:28:46.263Z,37.22
2022-12-23T15:31:44.494Z,42.00
2022-12-23T15:34:19.014Z,38.63
2022-12-23T15:36:49.432Z,28.25
2022-12-23T15:39:25.304Z,37.83
2022-12-23T15:41:55.128Z,28.77
2022-12-23T15:44:25.365Z,26.48
2022-12-23T15:46:52.923Z,29.13
2022-12-23T15:49:21.872Z,32.03
2022-12-23T15:52:08.884Z,30.40
2022-12-23T15:54:45.567Z,30.15
2022-12-23T15:57:18.159Z,29.25
2022-12-23T15:59:47.997Z,34.85
2022-12-23T16:05:48.876Z,33.53
2022-12-23T16:08:29.083Z,33.72
2022-12-23T16:11:22.697Z,30.95
2022-12-23T16:14:00.471Z,54.45
2022-12-23T16:16:30.829Z,51.20
2022-12-23T16:18:57.667Z,56.53
2022-12-23T16:21:29.859Z,54.78
2022-12-23T16:23:58.185Z,51.90
2022-12-23T16:26:25.257Z,51.53
2022-12-23T16:28:57.692Z,51.10
2022-12-23T16:33:59.249Z,53.22
2022-12-23T16:36:38.536Z,58.97
2022-12-23T16:39:26.811Z,63.38
2022-12-23T16:42:04.396Z,40.20
2022-12-23T16:44:37.472Z,46.47
2022-12-23T16:47:17.016Z,36.03
2022-12-23T16:49:47.901Z,33.50
2022-12-23T16:52:23.094Z,34.93
2022-12-23T16:54:55.829Z,57.92
2022-12-23T16:59:55.092Z,54.38
2022-12-23T17:02:32.086Z,53.72
2022-12-23T17:05:03.768Z,53.28
2022-12-23T17:07:35.854Z,35.75
2022-12-23T17:10:12.415Z,54.47
2022-12-23T17:12:39.377Z,52.20
2022-12-23T17:15:07.752Z,60.30
2022-12-23T17:17:36.357Z,56.40
2022-12-23T17:20:11.124Z,53.28
2022-12-23T17:22:51.673Z,61.67
2022-12-23T17:25:26.753Z,52.15
2022-12-23T17:27:55.682Z,41.10
2022-12-23T17:30:27.675Z,61.33
2022-12-23T17:33:02.373Z,63.35
2022-12-23T17:35:31.596Z,53.75
2022-12-23T17:37:58.432Z,39.63
2022-12-23T17:40:28.235Z,38.17
2022-12-23T17:42:55.860Z,38.90
2022-12-23T17:45:30.259Z,36.03
2022-12-23T17:48:00.123Z,61.25
2022-12-23T17:50:35.989Z,56.50
2022-12-23T17:53:04.497Z,55.45
2022-12-23T17:55:31.481Z,58.25
2022-12-23T17:58:01.759Z,55.47
2022-12-23T18:00:34.409Z,49.72
2022-12-23T18:03:07.501Z,62.65
2022-12-23T18:05:39.274Z,61.55
2022-12-23T18:08:06.093Z,38.25
2022-12-23T18:10:44.980Z,47.80
2022-12-23T18:13:18.781Z,37.83
2022-12-23T18:15:46.160Z,60.28
2022-12-23T18:18:28.648Z,38.53
2022-12-23T18:21:02.150Z,63.88
2022-12-23T18:23:41.312Z,59.90
2022-12-23T18:26:15.347Z,71.35
2022-12-23T18:28:45.610Z,60.47
2022-12-23T18:31:35.719Z,69.53
2022-12-23T18:34:07.212Z,69.07
2022-12-23T18:36:34.278Z,74.80
2022-12-23T18:39:01.237Z,70.47
2022-12-23T18:41:28.312Z,45.05
2022-12-23T18:43:55.435Z,47.38
2022-12-23T18:46:22.539Z,55.25
2022-12-23T18:48:49.762Z,44.72
2022-12-23T18:51:21.225Z,39.97
2022-12-23T18:53:53.608Z,45.97
2022-12-23T18:56:24.628Z,62.05
2022-12-23T18:58:51.861Z,69.85
2022-12-23T19:01:23.619Z,70.10
2022-12-23T19:04:04.523Z,43.13
2022-12-23T19:06:32.207Z,46.63
2022-12-23T19:08:58.911Z,63.85
2022-12-23T19:11:25.685Z,45.67
2022-12-23T19:14:01.538Z,45.33
2022-12-23T19:16:30.773Z,68.90
2022-12-23T19:19:00.142Z,73.75
2022-12-23T19:21:30.099Z,72.75
2022-12-23T19:24:02.948Z,73.43
2022-12-23T19:26:29.767Z,67.45
2022-12-23T19:28:56.449Z,82.93
2022-12-23T19:31:28.283Z,71.45
2022-12-23T19:34:01.852Z,48.75
2022-12-23T19:36:28.892Z,69.07
2022-12-23T19:38:59.241Z,70.65
2022-12-23T19:41:26.062Z,75.50
2022-12-23T19:43:52.887Z,70.32
2022-12-23T19:46:23.079Z,74.85
2022-12-23T19:48:59.139Z,48.78
2022-12-23T19:51:25.966Z,43.10
2022-12-23T19:54:01.268Z,45.50
2022-12-23T19:56:33.386Z,44.60
2022-12-23T19:59:00.560Z,73.75
2022-12-23T20:01:30.898Z,56.17
2022-12-23T20:03:58.756Z,82.88
2022-12-23T20:06:30.266Z,79.45
2022-12-23T20:09:00.800Z,77.70
2022-12-23T20:11:30.937Z,74.25
2022-12-23T20:13:58.582Z,78.90
2022-12-23T20:16:26.469Z,79.78
2022-12-23T20:18:53.608Z,65.47
2022-12-23T20:21:27.356Z,79.97
2022-12-23T20:23:58.160Z,54.70
2022-12-23T20:26:29.529Z,77.95
2022-12-23T20:28:59.821Z,83.97
2022-12-23T20:31:31.990Z,54.13
2022-12-23T20:34:05.194Z,79.22
2022-12-23T20:36:34.590Z,86.72
2022-12-23T20:39:03.617Z,85.03
2022-12-23T20:41:31.575Z,88.18
2022-12-23T20:46:45.986Z,92.78
2022-12-23T20:49:12.783Z,90.93
2022-12-23T20:51:40.617Z,58.50
2022-12-23T20:54:10.298Z,63.30
2022-12-23T20:56:37.029Z,64.78
2022-12-23T20:59:04.797Z,61.13
2022-12-23T21:01:43.805Z,57.85
2022-12-23T21:04:18.505Z,78.18
2022-12-23T21:06:45.428Z,76.05
2022-12-23T21:09:13.939Z,76.10
2022-12-23T21:11:46.273Z,73.00
2022-12-23T21:14:14.602Z,65.25
2022-12-23T21:16:42.075Z,71.00
2022-12-23T21:19:13.824Z,69.07
2022-12-23T21:21:40.539Z,78.67
2022-12-23T21:24:07.424Z,75.35
2022-12-23T21:26:37.937Z,76.07
2022-12-23T21:29:06.767Z,80.65
2022-12-23T21:31:36.686Z,77.75
2022-12-23T21:34:04.262Z,86.25
2022-12-23T21:36:34.318Z,92.18
2022-12-23T21:39:02.033Z,72.40
2022-12-23T21:41:31.167Z,88.43
2022-12-23T21:43:59.869Z,86.60
2022-12-23T21:46:30.674Z,87.50
2022-12-23T21:49:00.666Z,95.93
2022-12-23T21:51:39.531Z,90.47
2022-12-23T21:54:07.989Z,84.80
2022-12-23T21:56:34.979Z,76.82
2022-12-23T21:59:12.590Z,89.60
2022-12-23T22:01:40.012Z,101.85
2022-12-23T22:04:07.612Z,79.28
2022-12-23T22:06:38.037Z,83.22
2022-12-23T22:09:07.275Z,93.47
2022-12-23T22:11:36.032Z,83.10
2022-12-23T22:14:04.443Z,89.15
2022-12-23T22:16:32.322Z,80.40
2022-12-23T22:19:01.075Z,79.85
2022-12-23T22:21:30.511Z,80.63
2022-12-23T22:23:57.638Z,79.05
2022-12-23T22:26:27.551Z,84.25
2022-12-23T22:28:56.204Z,64.30
2022-12-23T22:31:27.539Z,65.82
2022-12-23T22:33:54.424Z,89.70
2022-12-23T22:36:21.268Z,74.22
2022-12-23T22:39:07.927Z,64.30
2022-12-23T22:41:37.645Z,68.13
2022-12-23T22:44:04.594Z,84.68
2022-12-23T22:46:31.429Z,80.20
2022-12-23T22:49:03.905Z,77.15
2022-12-23T22:51:31.665Z,58.92
2022-12-23T22:53:58.986Z,83.10
2022-12-23T22:56:26.376Z,86.72
2022-12-23T22:58:54.815Z,96.45
2022-12-23T23:01:28.584Z,91.10
2022-12-23T23:03:57.618Z,64.88
2022-12-23T23:06:25.978Z,97.03
2022-12-23T23:08:53.360Z,96.78
2022-12-23T23:11:20.256Z,92.85
2022-12-23T23:13:47.166Z,101.57
2022-12-23T23:16:14.076Z,74.78
2022-12-23T23:18:40.885Z,92.18
2022-12-23T23:21:08.389Z,92.63
2022-12-23T23:23:38.587Z,99.85
2022-12-23T23:26:11.309Z,95.93
2022-12-23T23:28:39.566Z,101.35
2022-12-23T23:31:40.684Z,90.07
2022-12-23T23:33:54.338Z,99.10
2022-12-23T23:36:21.488Z,95.88
2022-12-23T23:38:48.385Z,98.38
2022-12-23T23:41:22.500Z,61.25
2022-12-23T23:43:49.955Z,60.15
2022-12-23T23:46:16.746Z,61.88
2022-12-23T23:48:43.539Z,64.47
2022-12-23T23:51:10.313Z,60.42
2022-12-23T23:53:37.104Z,54.67
2022-12-23T23:56:23.821Z,60.22
2022-12-23T23:58:52.193Z,88.97
